Main page
METAR-TAF:

METAR-TAF

Airports :

Morón Air Base

Morón de la Frontera, Spain

latitude: 37-09N, longitude: 005-37W, elevation: 87 m

Current weather observation

The report was made 19 minutes ago, at 10:00 UTC
Wind 1 kt from variable directions
Temperature 23°C
Humidity 69%
Pressure 1018 hPa
Visibility 10 km or more
Overcast at a height of 2000 ft

METAR: LEMO 161000Z VRB01KT 9999 OVC020 23/17 Q1018 NOSIG

Time: 12:19 (10:19 UTC)

Forecast

The report was made 2 hours and 19 minutes ago, at 08:00 UTC
Forecast valid from 16 at 09 UTC to 16 at 18 UTC
Wind 6 kt from the West/Southwest
Visibility 10 km or more
no clouds below 1500 m and no cumulonimbus

TAF: LEMO 160800Z 1609/1618 25006KT CAVOK

Weather observations and forecasts of more than 4000 airports (METAR and TAF reports).

The available stations are represented by yellow and red dots on the map.

Hover mouse over dot to see the name of the station.

Then click to see weather observations and forecasts.

To change the map : click on the green buttons with a black cross to zoom in, on the green button with a dash to zoom out, or on the green arrows for adjacent maps.


METAR-TAF: